sensor_id;sensor_type;location;lat;lon;timestamp;P1;durP1;ratioP1;P2;durP2;ratioP2
28266;SDS011;15525;45.568;5.448;2023-03-21T00:01:33;20.75;;;13.23;;
28266;SDS011;15525;45.568;5.448;2023-03-21T00:03:58;20.23;;;13.00;;
28266;SDS011;15525;45.568;5.448;2023-03-21T00:06:23;21.48;;;13.05;;
28266;SDS011;15525;45.568;5.448;2023-03-21T00:08:49;19.00;;;12.70;;
28266;SDS011;15525;45.568;5.448;2023-03-21T00:11:14;19.15;;;12.27;;
28266;SDS011;15525;45.568;5.448;2023-03-21T00:13:40;24.33;;;13.38;;
28266;SDS011;15525;45.568;5.448;2023-03-21T00:16:15;23.60;;;12.05;;
28266;SDS011;15525;45.568;5.448;2023-03-21T00:18:45;20.23;;;12.90;;
28266;SDS011;15525;45.568;5.448;2023-03-21T00:21:17;20.63;;;12.57;;
28266;SDS011;15525;45.568;5.448;2023-03-21T00:23:44;21.48;;;13.80;;
28266;SDS011;15525;45.568;5.448;2023-03-21T00:26:11;21.48;;;13.48;;
28266;SDS011;15525;45.568;5.448;2023-03-21T00:28:37;21.17;;;13.13;;
28266;SDS011;15525;45.568;5.448;2023-03-21T00:31:04;18.48;;;12.45;;
28266;SDS011;15525;45.568;5.448;2023-03-21T00:33:31;20.30;;;12.88;;
28266;SDS011;15525;45.568;5.448;2023-03-21T00:35:57;25.45;;;13.30;;
28266;SDS011;15525;45.568;5.448;2023-03-21T00:38:23;28.52;;;13.55;;
28266;SDS011;15525;45.568;5.448;2023-03-21T00:40:48;22.05;;;13.20;;
28266;SDS011;15525;45.568;5.448;2023-03-21T00:43:14;21.13;;;13.18;;
28266;SDS011;15525;45.568;5.448;2023-03-21T00:45:47;23.33;;;13.15;;
28266;SDS011;15525;45.568;5.448;2023-03-21T00:48:14;19.70;;;13.18;;
28266;SDS011;15525;45.568;5.448;2023-03-21T00:50:40;21.20;;;13.00;;
28266;SDS011;15525;45.568;5.448;2023-03-21T00:53:09;21.45;;;13.50;;
28266;SDS011;15525;45.568;5.448;2023-03-21T00:55:35;21.48;;;13.50;;
28266;SDS011;15525;45.568;5.448;2023-03-21T00:58:02;20.27;;;13.07;;
28266;SDS011;15525;45.568;5.448;2023-03-21T01:00:28;22.75;;;13.43;;
28266;SDS011;15525;45.568;5.448;2023-03-21T01:02:54;22.15;;;13.25;;
28266;SDS011;15525;45.568;5.448;2023-03-21T01:05:30;21.45;;;12.93;;
28266;SDS011;15525;45.568;5.448;2023-03-21T01:08:16;22.48;;;13.07;;
28266;SDS011;15525;45.568;5.448;2023-03-21T01:10:44;20.90;;;12.70;;
28266;SDS011;15525;45.568;5.448;2023-03-21T01:13:11;22.90;;;12.98;;
28266;SDS011;15525;45.568;5.448;2023-03-21T01:15:51;18.35;;;11.93;;
28266;SDS011;15525;45.568;5.448;2023-03-21T01:18:20;17.98;;;12.05;;
28266;SDS011;15525;45.568;5.448;2023-03-21T01:20:49;18.75;;;11.63;;
28266;SDS011;15525;45.568;5.448;2023-03-21T01:23:14;19.05;;;12.43;;
28266;SDS011;15525;45.568;5.448;2023-03-21T01:25:40;22.27;;;13.10;;
28266;SDS011;15525;45.568;5.448;2023-03-21T01:28:06;20.85;;;11.93;;
28266;SDS011;15525;45.568;5.448;2023-03-21T01:30:33;21.48;;;13.00;;
28266;SDS011;15525;45.568;5.448;2023-03-21T01:32:59;20.17;;;12.35;;
28266;SDS011;15525;45.568;5.448;2023-03-21T01:35:24;20.40;;;12.52;;
28266;SDS011;15525;45.568;5.448;2023-03-21T01:37:50;19.05;;;12.02;;
28266;SDS011;15525;45.568;5.448;2023-03-21T01:40:17;18.83;;;11.45;;
28266;SDS011;15525;45.568;5.448;2023-03-21T01:42:44;21.35;;;12.63;;
28266;SDS011;15525;45.568;5.448;2023-03-21T01:48:12;17.95;;;11.40;;
28266;SDS011;15525;45.568;5.448;2023-03-21T01:50:39;18.60;;;11.55;;
28266;SDS011;15525;45.568;5.448;2023-03-21T01:53:06;17.38;;;10.95;;
28266;SDS011;15525;45.568;5.448;2023-03-21T01:55:31;20.25;;;12.55;;
28266;SDS011;15525;45.568;5.448;2023-03-21T01:57:58;16.40;;;10.98;;
28266;SDS011;15525;45.568;5.448;2023-03-21T02:00:27;18.00;;;11.68;;
28266;SDS011;15525;45.568;5.448;2023-03-21T02:02:53;19.95;;;12.48;;
28266;SDS011;15525;45.568;5.448;2023-03-21T02:05:28;20.63;;;13.25;;
28266;SDS011;15525;45.568;5.448;2023-03-21T02:07:59;19.42;;;12.32;;
28266;SDS011;15525;45.568;5.448;2023-03-21T02:10:25;18.67;;;12.50;;
28266;SDS011;15525;45.568;5.448;2023-03-21T02:12:53;21.10;;;12.20;;
28266;SDS011;15525;45.568;5.448;2023-03-21T02:15:21;19.10;;;11.95;;
28266;SDS011;15525;45.568;5.448;2023-03-21T02:17:53;18.35;;;11.88;;
28266;SDS011;15525;45.568;5.448;2023-03-21T02:23:13;17.48;;;11.15;;
28266;SDS011;15525;45.568;5.448;2023-03-21T02:39:28;18.83;;;11.27;;
28266;SDS011;15525;45.568;5.448;2023-03-21T02:42:28;18.55;;;11.55;;
28266;SDS011;15525;45.568;5.448;2023-03-21T02:45:06;18.40;;;11.52;;
28266;SDS011;15525;45.568;5.448;2023-03-21T02:47:52;17.67;;;10.98;;
28266;SDS011;15525;45.568;5.448;2023-03-21T02:50:36;16.30;;;10.40;;
28266;SDS011;15525;45.568;5.448;2023-03-21T02:53:08;17.20;;;10.95;;
28266;SDS011;15525;45.568;5.448;2023-03-21T02:55:36;19.08;;;11.48;;
28266;SDS011;15525;45.568;5.448;2023-03-21T02:58:05;18.70;;;11.40;;
28266;SDS011;15525;45.568;5.448;2023-03-21T03:00:32;19.10;;;11.52;;
28266;SDS011;15525;45.568;5.448;2023-03-21T03:02:58;18.70;;;11.73;;
28266;SDS011;15525;45.568;5.448;2023-03-21T03:05:24;20.42;;;10.60;;
28266;SDS011;15525;45.568;5.448;2023-03-21T03:07:58;17.98;;;10.23;;
28266;SDS011;15525;45.568;5.448;2023-03-21T03:16:14;19.55;;;11.05;;
28266;SDS011;15525;45.568;5.448;2023-03-21T03:19:01;18.55;;;11.25;;
28266;SDS011;15525;45.568;5.448;2023-03-21T03:24:11;17.08;;;10.95;;
28266;SDS011;15525;45.568;5.448;2023-03-21T03:29:13;17.20;;;10.63;;
28266;SDS011;15525;45.568;5.448;2023-03-21T03:31:46;18.45;;;10.88;;
28266;SDS011;15525;45.568;5.448;2023-03-21T03:34:21;22.70;;;10.40;;
28266;SDS011;15525;45.568;5.448;2023-03-21T03:36:51;16.80;;;10.27;;
28266;SDS011;15525;45.568;5.448;2023-03-21T03:39:22;18.05;;;10.85;;
28266;SDS011;15525;45.568;5.448;2023-03-21T03:42:02;18.00;;;9.75;;
28266;SDS011;15525;45.568;5.448;2023-03-21T03:44:31;17.50;;;10.48;;
28266;SDS011;15525;45.568;5.448;2023-03-21T03:47:02;16.48;;;9.48;;
28266;SDS011;15525;45.568;5.448;2023-03-21T03:49:35;19.13;;;10.30;;
28266;SDS011;15525;45.568;5.448;2023-03-21T03:52:11;17.42;;;10.00;;
28266;SDS011;15525;45.568;5.448;2023-03-21T03:55:03;15.30;;;9.85;;
28266;SDS011;15525;45.568;5.448;2023-03-21T03:57:30;16.30;;;9.55;;
28266;SDS011;15525;45.568;5.448;2023-03-21T03:59:56;16.83;;;10.32;;
28266;SDS011;15525;45.568;5.448;2023-03-21T04:02:22;15.98;;;9.88;;
28266;SDS011;15525;45.568;5.448;2023-03-21T04:04:47;18.02;;;10.07;;
28266;SDS011;15525;45.568;5.448;2023-03-21T04:07:17;18.58;;;10.32;;
28266;SDS011;15525;45.568;5.448;2023-03-21T04:09:43;18.13;;;10.10;;
28266;SDS011;15525;45.568;5.448;2023-03-21T04:12:09;15.85;;;9.52;;
28266;SDS011;15525;45.568;5.448;2023-03-21T04:14:36;14.45;;;9.23;;
28266;SDS011;15525;45.568;5.448;2023-03-21T04:17:02;16.13;;;9.68;;
28266;SDS011;15525;45.568;5.448;2023-03-21T04:19:27;15.38;;;9.25;;
28266;SDS011;15525;45.568;5.448;2023-03-21T04:21:53;14.93;;;9.68;;
28266;SDS011;15525;45.568;5.448;2023-03-21T04:24:19;17.50;;;10.15;;
28266;SDS011;15525;45.568;5.448;2023-03-21T04:26:45;17.13;;;9.27;;
28266;SDS011;15525;45.568;5.448;2023-03-21T04:29:10;15.60;;;9.75;;
28266;SDS011;15525;45.568;5.448;2023-03-21T04:31:35;17.20;;;9.73;;
28266;SDS011;15525;45.568;5.448;2023-03-21T04:34:02;17.92;;;9.70;;
28266;SDS011;15525;45.568;5.448;2023-03-21T04:36:34;14.88;;;9.00;;
28266;SDS011;15525;45.568;5.448;2023-03-21T04:39:05;18.23;;;10.82;;
28266;SDS011;15525;45.568;5.448;2023-03-21T04:41:36;20.00;;;13.60;;
28266;SDS011;15525;45.568;5.448;2023-03-21T04:44:02;16.13;;;10.40;;
28266;SDS011;15525;45.568;5.448;2023-03-21T04:46:28;18.27;;;9.88;;
28266;SDS011;15525;45.568;5.448;2023-03-21T04:48:53;15.98;;;9.35;;
28266;SDS011;15525;45.568;5.448;2023-03-21T04:51:19;18.25;;;9.95;;
28266;SDS011;15525;45.568;5.448;2023-03-21T04:53:44;20.15;;;9.85;;
28266;SDS011;15525;45.568;5.448;2023-03-21T04:56:13;15.65;;;9.27;;
28266;SDS011;15525;45.568;5.448;2023-03-21T04:58:39;18.45;;;9.85;;
28266;SDS011;15525;45.568;5.448;2023-03-21T05:01:06;16.33;;;9.35;;
28266;SDS011;15525;45.568;5.448;2023-03-21T05:03:32;17.45;;;9.35;;
28266;SDS011;15525;45.568;5.448;2023-03-21T05:06:07;13.85;;;9.38;;
28266;SDS011;15525;45.568;5.448;2023-03-21T05:08:34;15.27;;;8.98;;
28266;SDS011;15525;45.568;5.448;2023-03-21T05:11:00;17.92;;;9.27;;
28266;SDS011;15525;45.568;5.448;2023-03-21T05:13:26;17.63;;;9.85;;
28266;SDS011;15525;45.568;5.448;2023-03-21T05:15:52;16.10;;;8.85;;
28266;SDS011;15525;45.568;5.448;2023-03-21T05:18:17;15.75;;;9.50;;
28266;SDS011;15525;45.568;5.448;2023-03-21T05:20:49;18.20;;;9.15;;
28266;SDS011;15525;45.568;5.448;2023-03-21T05:23:18;18.90;;;10.68;;
28266;SDS011;15525;45.568;5.448;2023-03-21T05:25:44;20.92;;;12.00;;
28266;SDS011;15525;45.568;5.448;2023-03-21T05:28:10;28.10;;;14.85;;
28266;SDS011;15525;45.568;5.448;2023-03-21T05:30:35;30.77;;;15.68;;
28266;SDS011;15525;45.568;5.448;2023-03-21T05:33:01;34.05;;;17.38;;
28266;SDS011;15525;45.568;5.448;2023-03-21T05:35:27;32.13;;;17.13;;
28266;SDS011;15525;45.568;5.448;2023-03-21T05:37:52;30.70;;;18.63;;
28266;SDS011;15525;45.568;5.448;2023-03-21T05:40:18;31.98;;;17.70;;
28266;SDS011;15525;45.568;5.448;2023-03-21T05:42:44;33.45;;;18.58;;
28266;SDS011;15525;45.568;5.448;2023-03-21T05:45:11;28.83;;;16.58;;
28266;SDS011;15525;45.568;5.448;2023-03-21T05:47:37;25.92;;;14.32;;
28266;SDS011;15525;45.568;5.448;2023-03-21T05:50:02;29.77;;;14.07;;
28266;SDS011;15525;45.568;5.448;2023-03-21T05:52:28;20.27;;;12.38;;
28266;SDS011;15525;45.568;5.448;2023-03-21T05:54:54;18.80;;;11.50;;
28266;SDS011;15525;45.568;5.448;2023-03-21T05:57:19;16.38;;;10.27;;
28266;SDS011;15525;45.568;5.448;2023-03-21T05:59:44;17.90;;;10.40;;
28266;SDS011;15525;45.568;5.448;2023-03-21T06:02:10;20.45;;;10.45;;
28266;SDS011;15525;45.568;5.448;2023-03-21T06:04:35;17.77;;;10.10;;
28266;SDS011;15525;45.568;5.448;2023-03-21T06:07:01;14.88;;;9.30;;
28266;SDS011;15525;45.568;5.448;2023-03-21T06:09:27;15.10;;;8.85;;
28266;SDS011;15525;45.568;5.448;2023-03-21T06:11:53;15.23;;;8.70;;
28266;SDS011;15525;45.568;5.448;2023-03-21T06:14:21;23.15;;;9.23;;
28266;SDS011;15525;45.568;5.448;2023-03-21T06:16:47;18.67;;;9.25;;
28266;SDS011;15525;45.568;5.448;2023-03-21T06:19:12;18.50;;;10.38;;
28266;SDS011;15525;45.568;5.448;2023-03-21T06:21:38;33.63;;;15.23;;
28266;SDS011;15525;45.568;5.448;2023-03-21T06:24:03;37.97;;;17.10;;
28266;SDS011;15525;45.568;5.448;2023-03-21T06:26:29;44.90;;;17.85;;
28266;SDS011;15525;45.568;5.448;2023-03-21T06:28:55;37.78;;;16.38;;
28266;SDS011;15525;45.568;5.448;2023-03-21T06:31:20;24.85;;;11.60;;
28266;SDS011;15525;45.568;5.448;2023-03-21T06:33:47;21.38;;;10.60;;
28266;SDS011;15525;45.568;5.448;2023-03-21T06:36:13;20.42;;;10.32;;
28266;SDS011;15525;45.568;5.448;2023-03-21T06:38:39;17.80;;;9.60;;
28266;SDS011;15525;45.568;5.448;2023-03-21T06:41:05;22.15;;;9.75;;
28266;SDS011;15525;45.568;5.448;2023-03-21T06:43:31;20.27;;;10.63;;
28266;SDS011;15525;45.568;5.448;2023-03-21T06:45:57;30.25;;;15.00;;
28266;SDS011;15525;45.568;5.448;2023-03-21T06:48:23;27.15;;;13.35;;
28266;SDS011;15525;45.568;5.448;2023-03-21T06:50:50;27.88;;;14.57;;
28266;SDS011;15525;45.568;5.448;2023-03-21T06:53:16;27.30;;;13.48;;
28266;SDS011;15525;45.568;5.448;2023-03-21T06:55:42;23.95;;;13.38;;
28266;SDS011;15525;45.568;5.448;2023-03-21T06:58:12;20.42;;;11.88;;
28266;SDS011;15525;45.568;5.448;2023-03-21T07:00:38;21.00;;;12.38;;
28266;SDS011;15525;45.568;5.448;2023-03-21T07:03:03;20.95;;;11.77;;
28266;SDS011;15525;45.568;5.448;2023-03-21T07:05:29;19.30;;;10.85;;
28266;SDS011;15525;45.568;5.448;2023-03-21T07:07:54;17.77;;;10.25;;
28266;SDS011;15525;45.568;5.448;2023-03-21T07:10:20;15.82;;;9.90;;
28266;SDS011;15525;45.568;5.448;2023-03-21T07:12:45;16.52;;;9.57;;
28266;SDS011;15525;45.568;5.448;2023-03-21T07:15:10;14.77;;;9.43;;
28266;SDS011;15525;45.568;5.448;2023-03-21T07:17:36;15.23;;;9.27;;
28266;SDS011;15525;45.568;5.448;2023-03-21T07:20:01;16.92;;;9.20;;
28266;SDS011;15525;45.568;5.448;2023-03-21T07:22:32;15.95;;;9.52;;
28266;SDS011;15525;45.568;5.448;2023-03-21T07:24:57;13.90;;;8.63;;
28266;SDS011;15525;45.568;5.448;2023-03-21T07:27:22;15.70;;;9.15;;
28266;SDS011;15525;45.568;5.448;2023-03-21T07:29:48;15.60;;;8.60;;
28266;SDS011;15525;45.568;5.448;2023-03-21T07:32:14;15.82;;;8.10;;
28266;SDS011;15525;45.568;5.448;2023-03-21T07:34:40;11.30;;;7.82;;
28266;SDS011;15525;45.568;5.448;2023-03-21T07:37:06;12.32;;;8.18;;
28266;SDS011;15525;45.568;5.448;2023-03-21T07:39:31;11.57;;;7.57;;
28266;SDS011;15525;45.568;5.448;2023-03-21T07:41:58;12.60;;;7.35;;
28266;SDS011;15525;45.568;5.448;2023-03-21T07:44:24;12.70;;;7.70;;
28266;SDS011;15525;45.568;5.448;2023-03-21T07:46:50;11.88;;;7.25;;
28266;SDS011;15525;45.568;5.448;2023-03-21T07:49:15;12.80;;;7.35;;
28266;SDS011;15525;45.568;5.448;2023-03-21T07:51:41;11.32;;;7.30;;
28266;SDS011;15525;45.568;5.448;2023-03-21T07:54:07;11.85;;;7.57;;
28266;SDS011;15525;45.568;5.448;2023-03-21T07:56:32;12.40;;;7.82;;
28266;SDS011;15525;45.568;5.448;2023-03-21T07:58:57;11.18;;;7.10;;
28266;SDS011;15525;45.568;5.448;2023-03-21T08:01:24;10.85;;;7.10;;
28266;SDS011;15525;45.568;5.448;2023-03-21T08:03:52;11.55;;;6.70;;
28266;SDS011;15525;45.568;5.448;2023-03-21T08:06:21;11.48;;;7.32;;
28266;SDS011;15525;45.568;5.448;2023-03-21T08:08:47;10.43;;;7.38;;
28266;SDS011;15525;45.568;5.448;2023-03-21T08:11:12;10.50;;;7.18;;
28266;SDS011;15525;45.568;5.448;2023-03-21T08:13:38;9.85;;;6.95;;
28266;SDS011;15525;45.568;5.448;2023-03-21T08:16:04;12.05;;;7.45;;
28266;SDS011;15525;45.568;5.448;2023-03-21T08:18:31;12.38;;;8.05;;
28266;SDS011;15525;45.568;5.448;2023-03-21T08:20:57;10.13;;;7.40;;
28266;SDS011;15525;45.568;5.448;2023-03-21T08:23:23;13.13;;;8.63;;
28266;SDS011;15525;45.568;5.448;2023-03-21T08:25:53;14.45;;;8.85;;
28266;SDS011;15525;45.568;5.448;2023-03-21T08:28:19;12.10;;;8.15;;
28266;SDS011;15525;45.568;5.448;2023-03-21T08:30:45;10.73;;;8.02;;
28266;SDS011;15525;45.568;5.448;2023-03-21T08:33:11;13.25;;;8.55;;
28266;SDS011;15525;45.568;5.448;2023-03-21T08:35:41;12.02;;;8.20;;
28266;SDS011;15525;45.568;5.448;2023-03-21T08:38:06;11.75;;;8.25;;
28266;SDS011;15525;45.568;5.448;2023-03-21T08:40:32;12.98;;;8.10;;
28266;SDS011;15525;45.568;5.448;2023-03-21T08:42:58;9.95;;;7.57;;
28266;SDS011;15525;45.568;5.448;2023-03-21T08:45:24;13.68;;;8.20;;
28266;SDS011;15525;45.568;5.448;2023-03-21T08:47:51;10.32;;;7.40;;
28266;SDS011;15525;45.568;5.448;2023-03-21T08:50:19;11.38;;;6.75;;
28266;SDS011;15525;45.568;5.448;2023-03-21T08:52:46;11.07;;;7.35;;
28266;SDS011;15525;45.568;5.448;2023-03-21T08:55:12;9.27;;;6.68;;
28266;SDS011;15525;45.568;5.448;2023-03-21T08:57:39;9.07;;;6.40;;
28266;SDS011;15525;45.568;5.448;2023-03-21T09:00:05;9.25;;;6.25;;
28266;SDS011;15525;45.568;5.448;2023-03-21T09:02:40;8.77;;;6.05;;
28266;SDS011;15525;45.568;5.448;2023-03-21T09:05:06;8.88;;;5.82;;
28266;SDS011;15525;45.568;5.448;2023-03-21T09:07:33;8.02;;;5.93;;
28266;SDS011;15525;45.568;5.448;2023-03-21T09:10:03;8.18;;;6.13;;
28266;SDS011;15525;45.568;5.448;2023-03-21T09:12:30;9.45;;;5.70;;
28266;SDS011;15525;45.568;5.448;2023-03-21T09:14:56;8.55;;;5.40;;
28266;SDS011;15525;45.568;5.448;2023-03-21T09:17:22;7.63;;;5.60;;
28266;SDS011;15525;45.568;5.448;2023-03-21T09:19:47;8.38;;;5.90;;
28266;SDS011;15525;45.568;5.448;2023-03-21T09:22:14;7.22;;;4.90;;
28266;SDS011;15525;45.568;5.448;2023-03-21T09:24:44;7.22;;;5.35;;
28266;SDS011;15525;45.568;5.448;2023-03-21T09:27:12;7.60;;;4.68;;
28266;SDS011;15525;45.568;5.448;2023-03-21T09:29:39;10.63;;;4.78;;
28266;SDS011;15525;45.568;5.448;2023-03-21T09:32:07;7.32;;;4.35;;
28266;SDS011;15525;45.568;5.448;2023-03-21T09:34:33;8.55;;;5.47;;
28266;SDS011;15525;45.568;5.448;2023-03-21T09:37:01;7.38;;;5.22;;
28266;SDS011;15525;45.568;5.448;2023-03-21T09:39:27;9.00;;;5.00;;
28266;SDS011;15525;45.568;5.448;2023-03-21T09:44:34;4.68;;;4.00;;
28266;SDS011;15525;45.568;5.448;2023-03-21T09:47:29;8.75;;;6.15;;
28266;SDS011;15525;45.568;5.448;2023-03-21T09:50:12;8.83;;;6.43;;
28266;SDS011;15525;45.568;5.448;2023-03-21T09:52:43;9.18;;;5.90;;
28266;SDS011;15525;45.568;5.448;2023-03-21T09:55:35;7.80;;;5.47;;
28266;SDS011;15525;45.568;5.448;2023-03-21T09:58:18;7.72;;;4.97;;
28266;SDS011;15525;45.568;5.448;2023-03-21T10:01:16;6.63;;;5.10;;
28266;SDS011;15525;45.568;5.448;2023-03-21T10:03:52;7.82;;;5.40;;
28266;SDS011;15525;45.568;5.448;2023-03-21T10:06:20;6.90;;;5.18;;
28266;SDS011;15525;45.568;5.448;2023-03-21T10:08:52;7.47;;;5.03;;
28266;SDS011;15525;45.568;5.448;2023-03-21T10:11:33;10.38;;;5.88;;
28266;SDS011;15525;45.568;5.448;2023-03-21T10:16:56;12.55;;;6.10;;
28266;SDS011;15525;45.568;5.448;2023-03-21T10:19:25;10.20;;;6.43;;
28266;SDS011;15525;45.568;5.448;2023-03-21T10:21:52;9.07;;;6.72;;
28266;SDS011;15525;45.568;5.448;2023-03-21T10:24:20;9.55;;;6.00;;
28266;SDS011;15525;45.568;5.448;2023-03-21T10:26:49;8.30;;;5.97;;
28266;SDS011;15525;45.568;5.448;2023-03-21T10:29:16;8.27;;;6.00;;
28266;SDS011;15525;45.568;5.448;2023-03-21T10:31:46;8.07;;;6.15;;
28266;SDS011;15525;45.568;5.448;2023-03-21T10:34:17;8.60;;;5.32;;
28266;SDS011;15525;45.568;5.448;2023-03-21T10:36:51;9.70;;;6.38;;
28266;SDS011;15525;45.568;5.448;2023-03-21T10:41:49;10.32;;;5.70;;
28266;SDS011;15525;45.568;5.448;2023-03-21T10:44:18;8.75;;;5.80;;
28266;SDS011;15525;45.568;5.448;2023-03-21T10:46:55;8.55;;;6.18;;
28266;SDS011;15525;45.568;5.448;2023-03-21T10:49:31;8.10;;;6.43;;
28266;SDS011;15525;45.568;5.448;2023-03-21T10:51:57;8.75;;;5.78;;
28266;SDS011;15525;45.568;5.448;2023-03-21T10:54:30;6.80;;;5.78;;
28266;SDS011;15525;45.568;5.448;2023-03-21T10:56:59;7.90;;;5.45;;
28266;SDS011;15525;45.568;5.448;2023-03-21T10:59:34;8.05;;;5.63;;
28266;SDS011;15525;45.568;5.448;2023-03-21T11:02:03;7.35;;;5.57;;
28266;SDS011;15525;45.568;5.448;2023-03-21T11:04:30;7.18;;;5.20;;
28266;SDS011;15525;45.568;5.448;2023-03-21T11:06:57;7.45;;;5.60;;
28266;SDS011;15525;45.568;5.448;2023-03-21T11:09:26;7.82;;;5.13;;
28266;SDS011;15525;45.568;5.448;2023-03-21T11:12:11;6.05;;;5.13;;
28266;SDS011;15525;45.568;5.448;2023-03-21T11:14:40;6.80;;;4.75;;
28266;SDS011;15525;45.568;5.448;2023-03-21T11:17:29;6.15;;;4.78;;
28266;SDS011;15525;45.568;5.448;2023-03-21T11:19:58;7.32;;;6.03;;
28266;SDS011;15525;45.568;5.448;2023-03-21T11:22:27;6.50;;;5.63;;
28266;SDS011;15525;45.568;5.448;2023-03-21T11:25:01;6.88;;;5.88;;
28266;SDS011;15525;45.568;5.448;2023-03-21T11:27:30;7.85;;;5.20;;
28266;SDS011;15525;45.568;5.448;2023-03-21T11:29:57;6.20;;;5.32;;
28266;SDS011;15525;45.568;5.448;2023-03-21T11:35:27;6.35;;;5.35;;
28266;SDS011;15525;45.568;5.448;2023-03-21T11:37:52;6.25;;;4.88;;
28266;SDS011;15525;45.568;5.448;2023-03-21T11:43:23;4.53;;;4.10;;
28266;SDS011;15525;45.568;5.448;2023-03-21T11:45:41;5.10;;;4.05;;
28266;SDS011;15525;45.568;5.448;2023-03-21T11:48:22;4.95;;;3.65;;
28266;SDS011;15525;45.568;5.448;2023-03-21T11:50:48;4.93;;;3.55;;
28266;SDS011;15525;45.568;5.448;2023-03-21T12:06:47;4.40;;;4.00;;
28266;SDS011;15525;45.568;5.448;2023-03-21T12:09:23;5.00;;;3.92;;
28266;SDS011;15525;45.568;5.448;2023-03-21T12:34:31;6.82;;;3.60;;
28266;SDS011;15525;45.568;5.448;2023-03-21T12:39:42;5.50;;;4.00;;
28266;SDS011;15525;45.568;5.448;2023-03-21T12:42:18;4.18;;;3.65;;
28266;SDS011;15525;45.568;5.448;2023-03-21T12:44:54;4.07;;;3.40;;
28266;SDS011;15525;45.568;5.448;2023-03-21T12:47:28;7.20;;;3.92;;
28266;SDS011;15525;45.568;5.448;2023-03-21T12:49:59;6.20;;;4.22;;
28266;SDS011;15525;45.568;5.448;2023-03-21T12:52:34;4.72;;;4.03;;
28266;SDS011;15525;45.568;5.448;2023-03-21T12:55:15;4.28;;;3.85;;
28266;SDS011;15525;45.568;5.448;2023-03-21T13:00:36;4.90;;;3.47;;
28266;SDS011;15525;45.568;5.448;2023-03-21T13:05:33;6.68;;;3.40;;
28266;SDS011;15525;45.568;5.448;2023-03-21T13:08:11;7.95;;;3.83;;
28266;SDS011;15525;45.568;5.448;2023-03-21T13:10:51;3.65;;;2.80;;
28266;SDS011;15525;45.568;5.448;2023-03-21T13:15:56;4.63;;;2.72;;
28266;SDS011;15525;45.568;5.448;2023-03-21T13:24:04;4.78;;;2.83;;
28266;SDS011;15525;45.568;5.448;2023-03-21T13:26:49;4.45;;;2.60;;
28266;SDS011;15525;45.568;5.448;2023-03-21T13:34:55;5.00;;;2.55;;
28266;SDS011;15525;45.568;5.448;2023-03-21T13:37:24;3.88;;;3.03;;
28266;SDS011;15525;45.568;5.448;2023-03-21T13:39:54;3.80;;;2.25;;
28266;SDS011;15525;45.568;5.448;2023-03-21T13:42:28;3.80;;;2.60;;
28266;SDS011;15525;45.568;5.448;2023-03-21T13:45:00;4.15;;;2.50;;
28266;SDS011;15525;45.568;5.448;2023-03-21T13:47:33;3.20;;;2.60;;
28266;SDS011;15525;45.568;5.448;2023-03-21T13:50:11;4.75;;;2.60;;
28266;SDS011;15525;45.568;5.448;2023-03-21T13:52:41;4.82;;;2.45;;
28266;SDS011;15525;45.568;5.448;2023-03-21T13:55:14;4.45;;;2.83;;
28266;SDS011;15525;45.568;5.448;2023-03-21T13:57:45;4.85;;;3.40;;
28266;SDS011;15525;45.568;5.448;2023-03-21T14:02:55;3.83;;;3.25;;
28266;SDS011;15525;45.568;5.448;2023-03-21T14:05:23;5.72;;;3.55;;
28266;SDS011;15525;45.568;5.448;2023-03-21T14:08:01;4.60;;;3.05;;
28266;SDS011;15525;45.568;5.448;2023-03-21T14:10:33;4.70;;;3.22;;
28266;SDS011;15525;45.568;5.448;2023-03-21T14:13:05;3.83;;;2.97;;
28266;SDS011;15525;45.568;5.448;2023-03-21T14:15:39;4.55;;;2.85;;
28266;SDS011;15525;45.568;5.448;2023-03-21T14:18:12;3.70;;;2.63;;
28266;SDS011;15525;45.568;5.448;2023-03-21T14:20:40;4.60;;;3.40;;
28266;SDS011;15525;45.568;5.448;2023-03-21T14:23:15;5.13;;;3.20;;
28266;SDS011;15525;45.568;5.448;2023-03-21T14:25:41;3.33;;;3.03;;
28266;SDS011;15525;45.568;5.448;2023-03-21T14:30:51;5.05;;;3.15;;
28266;SDS011;15525;45.568;5.448;2023-03-21T14:35:57;3.83;;;2.80;;
28266;SDS011;15525;45.568;5.448;2023-03-21T14:38:25;4.38;;;2.78;;
28266;SDS011;15525;45.568;5.448;2023-03-21T14:40:56;6.95;;;2.70;;
28266;SDS011;15525;45.568;5.448;2023-03-21T14:43:22;3.88;;;2.38;;
28266;SDS011;15525;45.568;5.448;2023-03-21T14:45:49;4.53;;;2.58;;
28266;SDS011;15525;45.568;5.448;2023-03-21T14:48:17;5.15;;;2.65;;
28266;SDS011;15525;45.568;5.448;2023-03-21T14:53:20;2.45;;;2.10;;
28266;SDS011;15525;45.568;5.448;2023-03-21T14:55:54;3.40;;;2.28;;
28266;SDS011;15525;45.568;5.448;2023-03-21T14:58:23;4.05;;;2.20;;
28266;SDS011;15525;45.568;5.448;2023-03-21T15:00:50;3.35;;;2.20;;
28266;SDS011;15525;45.568;5.448;2023-03-21T15:03:18;2.97;;;2.30;;
28266;SDS011;15525;45.568;5.448;2023-03-21T15:05:47;2.70;;;2.40;;
28266;SDS011;15525;45.568;5.448;2023-03-21T15:08:14;4.57;;;2.20;;
28266;SDS011;15525;45.568;5.448;2023-03-21T15:10:52;3.67;;;2.25;;
28266;SDS011;15525;45.568;5.448;2023-03-21T15:13:45;4.15;;;2.13;;
28266;SDS011;15525;45.568;5.448;2023-03-21T15:16:18;3.55;;;2.08;;
28266;SDS011;15525;45.568;5.448;2023-03-21T15:18:45;3.28;;;1.95;;
28266;SDS011;15525;45.568;5.448;2023-03-21T15:21:15;4.50;;;2.17;;
28266;SDS011;15525;45.568;5.448;2023-03-21T15:23:42;4.40;;;2.00;;
28266;SDS011;15525;45.568;5.448;2023-03-21T15:26:18;3.92;;;2.55;;
28266;SDS011;15525;45.568;5.448;2023-03-21T15:28:46;4.40;;;2.20;;
28266;SDS011;15525;45.568;5.448;2023-03-21T15:31:17;3.55;;;2.17;;
28266;SDS011;15525;45.568;5.448;2023-03-21T15:33:47;4.80;;;2.40;;
28266;SDS011;15525;45.568;5.448;2023-03-21T15:36:25;7.05;;;2.30;;
28266;SDS011;15525;45.568;5.448;2023-03-21T15:38:52;4.97;;;2.00;;
28266;SDS011;15525;45.568;5.448;2023-03-21T15:43:52;3.70;;;2.10;;
28266;SDS011;15525;45.568;5.448;2023-03-21T15:49:23;4.60;;;2.28;;
28266;SDS011;15525;45.568;5.448;2023-03-21T15:52:31;3.78;;;2.03;;
28266;SDS011;15525;45.568;5.448;2023-03-21T15:54:46;3.05;;;2.03;;
28266;SDS011;15525;45.568;5.448;2023-03-21T15:57:32;4.20;;;2.00;;
28266;SDS011;15525;45.568;5.448;2023-03-21T16:00:00;5.35;;;2.35;;
28266;SDS011;15525;45.568;5.448;2023-03-21T16:02:35;5.38;;;2.20;;
28266;SDS011;15525;45.568;5.448;2023-03-21T16:07:58;4.10;;;2.20;;
28266;SDS011;15525;45.568;5.448;2023-03-21T16:10:29;3.38;;;2.20;;
28266;SDS011;15525;45.568;5.448;2023-03-21T16:13:00;2.53;;;1.95;;
28266;SDS011;15525;45.568;5.448;2023-03-21T16:15:26;3.38;;;2.40;;
28266;SDS011;15525;45.568;5.448;2023-03-21T16:18:01;3.65;;;2.17;;
28266;SDS011;15525;45.568;5.448;2023-03-21T16:20:30;3.42;;;2.40;;
28266;SDS011;15525;45.568;5.448;2023-03-21T16:22:58;4.65;;;2.50;;
28266;SDS011;15525;45.568;5.448;2023-03-21T16:25:24;4.75;;;2.60;;
28266;SDS011;15525;45.568;5.448;2023-03-21T16:27:49;3.58;;;2.40;;
28266;SDS011;15525;45.568;5.448;2023-03-21T16:30:17;3.67;;;2.20;;
28266;SDS011;15525;45.568;5.448;2023-03-21T16:32:44;3.55;;;2.20;;
28266;SDS011;15525;45.568;5.448;2023-03-21T16:35:10;5.50;;;2.47;;
28266;SDS011;15525;45.568;5.448;2023-03-21T16:37:36;3.25;;;2.35;;
28266;SDS011;15525;45.568;5.448;2023-03-21T16:40:03;4.13;;;2.33;;
28266;SDS011;15525;45.568;5.448;2023-03-21T16:42:39;4.18;;;2.35;;
28266;SDS011;15525;45.568;5.448;2023-03-21T16:45:04;5.53;;;3.00;;
28266;SDS011;15525;45.568;5.448;2023-03-21T16:47:31;3.92;;;2.45;;
28266;SDS011;15525;45.568;5.448;2023-03-21T16:49:56;4.57;;;2.42;;